Decoded Metar for KMWL (MINERAL WELLS in TX, USA) (IATA:MWL) | Meteo·Mobile Aviation Weather
aviador You're here:

KMWL Decoded Metar

MINERAL WELLS in TX, USA
Report Time2018-12-12 00:53:00
UTC Time2018-12-12 01:56:44
Flight Rules vfr VFR
Wind160° at 10 kt
W.Decomp.*RWY 17: 9.6 kt HW 2.8 kt LCW
RWY 13: 9.1 kt HW 4.1 kt RCW
W.Rank160° ranks 3
Current wind is above 160° avg. (9.2)
Visibility9999 m
Phenomena:N/A
Clouds:N/A
Expected CloudBase > 3,600 ft AGL from Temp-Dew spread
CeilingNone
Temp12°C (ISA -1)
Dew Point03°C (54% RH)
AAT6.9°C
QNH1019 hPa
Density Alt699 ft
Elevation932 ft
Report Wrong Elevation
Raw Report
KMWL 120053Z AUTO 16010KT 10SM CLR 12/03 A3008 RMK AO2 SLP187
T01170033=

Extra information for KMWL:More info

Metar Taf Metar & Taf Last 4 Metars F.Rules Stats Wind Profile Meteogram Temp Stats Airport Information Weather charts Add Link Nearby VenuesMetar ALERT Operation Metar Decoded Social comments

AIRNAV info for KMWL